createdAt,value
2019-03-17T00:00:56.789Z,12.88
2019-03-17T00:03:26.148Z,12.90
2019-03-17T00:05:55.436Z,12.87
2019-03-17T00:08:24.759Z,12.86
2019-03-17T00:10:54.313Z,12.83
2019-03-17T00:13:23.572Z,12.85
2019-03-17T00:15:52.903Z,12.85
2019-03-17T00:18:23.507Z,12.91
2019-03-17T00:20:57.252Z,12.94
2019-03-17T00:23:30.155Z,12.87
2019-03-17T00:26:05.305Z,12.87
2019-03-17T00:28:52.041Z,12.89
2019-03-17T00:31:26.375Z,12.88
2019-03-17T00:34:04.423Z,12.84
2019-03-17T00:36:34.438Z,12.88
2019-03-17T00:39:04.579Z,12.87
2019-03-17T00:41:36.431Z,12.83
2019-03-17T00:55:31.601Z,12.29
2019-03-17T00:58:00.916Z,12.21
2019-03-17T01:00:30.524Z,12.15
2019-03-17T01:02:59.807Z,12.08
2019-03-17T01:05:31.630Z,12.07
2019-03-17T01:08:01.082Z,12.04
2019-03-17T01:10:30.349Z,12.07
2019-03-17T01:12:59.559Z,12.02
2019-03-17T01:15:31.978Z,11.98
2019-03-17T01:18:01.267Z,12.00
2019-03-17T01:20:30.970Z,12.01
2019-03-17T01:23:00.191Z,11.89
2019-03-17T01:25:29.540Z,11.85
2019-03-17T01:27:58.811Z,11.79
2019-03-17T01:30:28.345Z,11.76
2019-03-17T01:32:57.584Z,11.69
2019-03-17T01:35:26.971Z,11.61
2019-03-17T01:37:56.215Z,11.55
2019-03-17T01:40:25.488Z,11.56
2019-03-17T01:42:54.704Z,11.58
2019-03-17T01:45:24.112Z,11.51
2019-03-17T01:47:54.168Z,11.40
2019-03-17T01:50:23.770Z,11.30
2019-03-17T01:52:53.383Z,11.27
2019-03-17T01:55:22.722Z,11.28
2019-03-17T01:57:52.327Z,11.22
2019-03-17T02:00:21.695Z,11.23
2019-03-17T02:02:51.127Z,11.29
2019-03-17T02:05:22.409Z,11.19
2019-03-17T02:07:51.550Z,11.19
2019-03-17T02:10:20.838Z,11.23
2019-03-17T02:12:50.241Z,11.11
2019-03-17T02:15:19.580Z,11.01
2019-03-17T02:17:49.103Z,10.92
2019-03-17T02:20:18.380Z,10.89
2019-03-17T02:22:47.598Z,10.84
2019-03-17T02:25:16.861Z,10.84
2019-03-17T02:27:46.074Z,10.80
2019-03-17T02:30:15.381Z,10.68
2019-03-17T02:32:44.603Z,10.60
2019-03-17T02:35:13.891Z,10.44
2019-03-17T02:37:43.132Z,10.33
2019-03-17T02:42:47.548Z,10.09
2019-03-17T02:45:16.952Z,10.09
2019-03-17T02:47:46.571Z,10.00
2019-03-17T02:50:15.815Z,9.95
2019-03-17T02:52:45.141Z,9.94
2019-03-17T02:55:14.720Z,9.93
2019-03-17T02:57:43.959Z,9.87
2019-03-17T03:00:13.327Z,9.90
2019-03-17T03:02:42.530Z,9.91
2019-03-17T03:05:12.202Z,9.77
2019-03-17T03:07:41.435Z,9.83
2019-03-17T03:10:10.673Z,9.89
2019-03-17T03:12:39.874Z,9.92
2019-03-17T03:15:09.348Z,9.92
2019-03-17T03:17:38.660Z,9.98
2019-03-17T03:20:07.953Z,10.03
2019-03-17T03:22:37.198Z,10.08
2019-03-17T03:25:06.641Z,10.09
2019-03-17T03:27:35.938Z,10.09
2019-03-17T03:30:06.486Z,10.07
2019-03-17T03:32:35.708Z,10.13
2019-03-17T03:35:04.972Z,10.17
2019-03-17T03:37:34.335Z,10.18
2019-03-17T03:40:03.694Z,10.19
2019-03-17T03:42:33.007Z,10.12
2019-03-17T03:45:02.402Z,10.11
2019-03-17T03:47:31.651Z,10.11
2019-03-17T03:50:01.031Z,10.11
2019-03-17T03:52:30.353Z,10.02
2019-03-17T03:54:59.636Z,9.95
2019-03-17T03:57:28.970Z,9.94
2019-03-17T03:59:58.217Z,9.96
2019-03-17T04:02:27.549Z,9.85
2019-03-17T04:04:56.772Z,9.86
2019-03-17T04:07:26.040Z,9.83
2019-03-17T04:09:56.189Z,9.76
2019-03-17T04:12:26.175Z,9.76
2019-03-17T04:14:55.387Z,9.68
2019-03-17T04:17:24.722Z,9.60
2019-03-17T04:19:53.956Z,9.53
2019-03-17T04:22:23.262Z,9.52
2019-03-17T04:24:52.805Z,9.54
2019-03-17T04:27:22.091Z,9.54
2019-03-17T04:29:51.394Z,9.49
2019-03-17T04:32:20.723Z,9.38
2019-03-17T04:34:50.088Z,9.30
2019-03-17T04:37:19.598Z,9.33
2019-03-17T04:39:49.136Z,9.25
2019-03-17T04:42:18.450Z,9.09
2019-03-17T04:44:48.009Z,9.10
2019-03-17T04:47:17.275Z,9.12
2019-03-17T04:49:46.509Z,9.03
2019-03-17T04:52:15.746Z,9.04
2019-03-17T04:54:45.083Z,9.08
2019-03-17T04:57:14.627Z,9.06
2019-03-17T04:59:43.854Z,9.09
2019-03-17T05:02:13.759Z,9.07
2019-03-17T05:04:43.083Z,9.05
2019-03-17T05:07:12.647Z,9.02
2019-03-17T05:09:42.337Z,9.02
2019-03-17T05:12:11.651Z,8.98
2019-03-17T05:14:41.438Z,9.02
2019-03-17T05:17:12.139Z,9.00
2019-03-17T05:19:41.556Z,9.03
2019-03-17T05:22:10.875Z,9.09
2019-03-17T05:24:41.461Z,9.16
2019-03-17T05:27:10.742Z,9.25
2019-03-17T05:29:40.339Z,9.22
2019-03-17T05:32:09.884Z,9.23
2019-03-17T05:34:39.153Z,9.26
2019-03-17T05:37:08.443Z,9.24
2019-03-17T05:39:37.764Z,9.22
2019-03-17T05:42:07.005Z,9.26
2019-03-17T05:44:36.463Z,9.34
2019-03-17T05:47:05.895Z,9.38
2019-03-17T05:49:35.641Z,9.45
2019-03-17T05:52:04.860Z,9.52
2019-03-17T05:54:34.231Z,9.59
2019-03-17T05:57:03.739Z,9.59
2019-03-17T05:59:33.718Z,9.72
2019-03-17T06:02:03.088Z,9.74
2019-03-17T06:04:32.499Z,9.78
2019-03-17T06:07:01.893Z,9.82
2019-03-17T06:09:31.222Z,9.84
2019-03-17T06:12:00.806Z,9.93
2019-03-17T06:14:30.193Z,10.02
2019-03-17T06:16:59.871Z,10.10
2019-03-17T06:19:29.316Z,10.31
2019-03-17T06:22:00.630Z,10.43
2019-03-17T06:24:30.118Z,10.45
2019-03-17T06:26:59.978Z,10.57
2019-03-17T06:29:29.368Z,10.66
2019-03-17T06:31:58.744Z,10.71
2019-03-17T06:34:28.058Z,10.86
2019-03-17T06:36:57.632Z,10.88
2019-03-17T06:39:26.919Z,10.98
2019-03-17T06:41:56.168Z,11.02
2019-03-17T06:44:25.384Z,11.09
2019-03-17T06:46:56.246Z,11.03
2019-03-17T06:49:25.597Z,11.06
2019-03-17T06:51:55.218Z,11.11
2019-03-17T06:54:24.593Z,11.15
2019-03-17T06:56:54.112Z,11.24
2019-03-17T06:59:23.522Z,11.30
2019-03-17T07:01:52.876Z,11.30
2019-03-17T07:04:22.510Z,11.48
2019-03-17T07:06:51.803Z,11.69
2019-03-17T07:09:21.135Z,11.83
2019-03-17T07:11:50.379Z,12.04
2019-03-17T07:14:20.367Z,12.12
2019-03-17T07:16:49.932Z,12.24
2019-03-17T07:19:19.215Z,12.36
2019-03-17T07:21:50.951Z,12.54
2019-03-17T07:24:20.359Z,12.58
2019-03-17T07:26:49.795Z,12.67
2019-03-17T07:29:19.122Z,12.77
2019-03-17T07:31:48.376Z,12.92
2019-03-17T07:34:17.571Z,12.96
2019-03-17T07:36:46.838Z,13.02
2019-03-17T07:39:16.036Z,13.07
2019-03-17T07:41:45.236Z,13.14
2019-03-17T07:44:14.937Z,13.14
2019-03-17T07:46:44.134Z,13.21
2019-03-17T07:49:13.541Z,13.31
2019-03-17T07:51:43.013Z,13.40
2019-03-17T07:54:12.256Z,13.63
2019-03-17T07:56:41.467Z,13.71
2019-03-17T07:59:10.716Z,13.87
2019-03-17T08:01:39.907Z,14.03
2019-03-17T08:04:09.444Z,14.23
2019-03-17T08:06:38.646Z,14.43
2019-03-17T08:09:08.915Z,14.50
2019-03-17T08:11:38.123Z,14.53
2019-03-17T08:14:07.402Z,14.61
2019-03-17T08:16:36.619Z,14.86
2019-03-17T08:19:05.885Z,14.99
2019-03-17T08:21:35.410Z,15.13
2019-03-17T08:24:04.825Z,15.31
2019-03-17T08:26:34.036Z,15.45
2019-03-17T08:29:03.346Z,15.54
2019-03-17T08:31:32.823Z,15.56
2019-03-17T08:34:02.090Z,15.82
2019-03-17T08:36:31.301Z,16.00
2019-03-17T08:39:00.583Z,15.95
2019-03-17T08:41:29.847Z,15.98
2019-03-17T08:43:59.100Z,15.90
2019-03-17T08:46:28.454Z,15.96
2019-03-17T08:48:57.785Z,16.11
2019-03-17T08:51:27.095Z,16.24
2019-03-17T08:53:56.362Z,16.32
2019-03-17T08:56:25.578Z,16.43
2019-03-17T08:58:54.848Z,16.49
2019-03-17T09:01:24.064Z,16.72
2019-03-17T09:03:53.457Z,16.85
2019-03-17T09:06:22.665Z,16.92
2019-03-17T09:08:52.230Z,17.03
2019-03-17T09:11:21.737Z,17.00
2019-03-17T09:13:50.934Z,17.10
2019-03-17T09:16:20.504Z,17.15
2019-03-17T09:18:49.734Z,17.03
2019-03-17T09:21:19.003Z,17.14
2019-03-17T09:23:48.214Z,17.15
2019-03-17T09:26:17.507Z,17.29
2019-03-17T09:28:46.768Z,17.29
2019-03-17T09:31:15.964Z,17.37
2019-03-17T09:33:45.243Z,17.39
2019-03-17T09:36:14.862Z,17.40
2019-03-17T09:38:47.438Z,17.54
2019-03-17T09:41:15.381Z,17.60
2019-03-17T09:43:44.660Z,17.68
2019-03-17T09:46:13.954Z,17.75
2019-03-17T09:48:43.346Z,17.78
2019-03-17T09:51:14.711Z,17.78
2019-03-17T09:53:43.927Z,17.73
2019-03-17T09:56:13.192Z,17.75
2019-03-17T09:58:45.452Z,17.77
2019-03-17T10:01:13.416Z,17.95
2019-03-17T10:03:44.717Z,18.17
2019-03-17T10:06:14.461Z,18.33
2019-03-17T10:08:46.252Z,18.47
2019-03-17T10:11:15.609Z,18.62
2019-03-17T10:13:44.960Z,18.73
2019-03-17T10:16:14.166Z,18.60
2019-03-17T10:18:43.547Z,18.60
2019-03-17T10:21:12.756Z,18.55
2019-03-17T10:23:42.903Z,18.64
2019-03-17T10:26:12.195Z,18.52
2019-03-17T10:28:41.784Z,18.41
2019-03-17T10:31:11.132Z,18.32
2019-03-17T10:33:41.876Z,18.37
2019-03-17T10:36:11.530Z,18.58
2019-03-17T10:38:42.818Z,18.66
2019-03-17T10:41:12.081Z,18.59
2019-03-17T10:43:41.366Z,18.47
2019-03-17T10:46:10.630Z,18.42
2019-03-17T10:48:42.917Z,18.67
2019-03-17T10:51:12.322Z,18.86
2019-03-17T10:53:41.594Z,18.70
2019-03-17T10:56:10.865Z,18.67
2019-03-17T10:58:40.367Z,18.74
2019-03-17T11:01:10.141Z,18.86
2019-03-17T11:03:39.383Z,18.86
2019-03-17T11:06:40.997Z,18.87
2019-03-17T11:09:10.370Z,18.87
2019-03-17T11:11:39.970Z,18.97
2019-03-17T11:14:09.521Z,19.08
2019-03-17T11:16:41.092Z,18.97
2019-03-17T11:19:10.004Z,18.97
2019-03-17T11:21:39.247Z,18.95
2019-03-17T11:24:08.814Z,18.95
2019-03-17T11:26:38.291Z,18.97
2019-03-17T11:29:08.974Z,18.93
2019-03-17T11:31:38.599Z,18.66
2019-03-17T11:34:08.081Z,18.66
2019-03-17T11:36:37.777Z,18.85
2019-03-17T11:39:07.953Z,18.63
2019-03-17T11:41:37.352Z,18.55
2019-03-17T11:44:06.600Z,18.53
2019-03-17T11:46:35.849Z,18.53
2019-03-17T11:49:05.102Z,18.59
2019-03-17T11:51:34.666Z,18.62
2019-03-17T11:54:04.308Z,18.52
2019-03-17T11:56:33.953Z,18.54
2019-03-17T11:59:03.254Z,18.62
2019-03-17T12:01:32.582Z,18.66
2019-03-17T12:04:01.841Z,18.77
2019-03-17T12:06:31.221Z,18.78
2019-03-17T12:09:00.467Z,18.60
2019-03-17T12:11:29.655Z,18.61
2019-03-17T12:14:00.334Z,18.55
2019-03-17T12:16:31.862Z,18.55
2019-03-17T12:19:01.179Z,18.63
2019-03-17T12:21:30.700Z,18.76
2019-03-17T12:24:02.583Z,18.74
2019-03-17T12:26:31.819Z,18.54
2019-03-17T12:29:01.184Z,18.54
2019-03-17T12:31:30.668Z,18.63
2019-03-17T12:34:02.969Z,18.69
2019-03-17T12:36:34.715Z,18.78
2019-03-17T12:39:06.138Z,18.74
2019-03-17T12:41:38.596Z,18.75
2019-03-17T12:44:07.784Z,18.79
2019-03-17T12:46:38.582Z,18.78
2019-03-17T12:49:07.777Z,18.75
2019-03-17T12:51:38.815Z,18.86
2019-03-17T12:54:09.417Z,18.81
2019-03-17T12:56:38.769Z,18.85
2019-03-17T12:59:13.430Z,18.81
2019-03-17T13:01:42.800Z,18.75
2019-03-17T13:04:11.977Z,18.76
2019-03-17T13:06:43.398Z,18.80
2019-03-17T13:09:32.149Z,18.82
2019-03-17T13:12:04.232Z,18.86
2019-03-17T13:14:33.499Z,18.94
2019-03-17T13:17:03.160Z,19.03
2019-03-17T13:19:32.612Z,19.13
2019-03-17T13:22:04.856Z,19.17
2019-03-17T13:24:55.839Z,19.25
2019-03-17T13:27:25.349Z,19.33
2019-03-17T13:29:54.925Z,19.21
2019-03-17T13:32:24.176Z,19.24
2019-03-17T13:34:53.683Z,19.19
2019-03-17T13:37:23.005Z,19.20
2019-03-17T13:39:52.189Z,19.20
2019-03-17T13:42:22.976Z,19.31
2019-03-17T13:44:52.239Z,19.40
2019-03-17T13:47:21.914Z,19.32
2019-03-17T13:49:51.188Z,19.23
2019-03-17T13:52:20.438Z,19.43
2019-03-17T13:54:49.647Z,19.66
2019-03-17T13:57:21.203Z,19.63
2019-03-17T13:59:50.612Z,19.58
2019-03-17T14:02:19.868Z,19.62
2019-03-17T14:04:49.087Z,19.53
2019-03-17T14:07:18.620Z,19.31
2019-03-17T14:09:47.818Z,19.16
2019-03-17T14:12:17.345Z,19.13
2019-03-17T14:14:47.044Z,19.23
2019-03-17T14:17:16.280Z,19.24
2019-03-17T14:19:45.495Z,19.38
2019-03-17T14:22:14.748Z,19.14
2019-03-17T14:24:44.013Z,19.01
2019-03-17T14:27:13.595Z,19.05
2019-03-17T14:29:42.923Z,19.12
2019-03-17T14:32:12.469Z,19.03
2019-03-17T14:34:41.773Z,19.03
2019-03-17T14:37:14.080Z,19.19
2019-03-17T14:39:43.792Z,19.18
2019-03-17T14:42:13.171Z,19.18
2019-03-17T14:44:42.501Z,19.05
2019-03-17T14:47:11.696Z,19.06
2019-03-17T14:49:41.172Z,18.94
2019-03-17T14:52:10.428Z,19.46
2019-03-17T14:54:39.895Z,19.46
2019-03-17T14:57:09.457Z,19.34
2019-03-17T14:59:38.963Z,19.53
2019-03-17T15:02:08.213Z,19.53
2019-03-17T15:04:37.399Z,19.20
2019-03-17T15:07:06.648Z,19.20
2019-03-17T15:09:36.124Z,19.31
2019-03-17T15:12:05.368Z,19.63
2019-03-17T15:14:34.855Z,19.53
2019-03-17T15:17:04.120Z,19.52
2019-03-17T15:19:33.314Z,19.78
2019-03-17T15:22:02.797Z,19.55
2019-03-17T15:24:31.996Z,20.33
2019-03-17T15:27:01.285Z,21.57
2019-03-17T15:29:30.573Z,22.82
2019-03-17T15:31:59.862Z,23.27
2019-03-17T15:34:29.090Z,23.73
2019-03-17T15:36:58.615Z,24.44
2019-03-17T15:39:28.090Z,24.95
2019-03-17T15:41:57.348Z,22.81
2019-03-17T15:44:26.852Z,22.84
2019-03-17T15:46:56.692Z,22.88
2019-03-17T15:49:26.169Z,22.19
2019-03-17T15:51:55.410Z,21.68
2019-03-17T15:54:24.603Z,21.00
2019-03-17T15:56:53.829Z,20.14
2019-03-17T15:59:23.187Z,19.49
2019-03-17T16:01:52.379Z,19.23
2019-03-17T16:04:21.641Z,18.89
2019-03-17T16:06:50.824Z,18.77
2019-03-17T16:09:20.065Z,18.24
2019-03-17T16:11:49.535Z,17.83
2019-03-17T16:14:19.216Z,17.58
2019-03-17T16:16:48.379Z,17.35
2019-03-17T16:19:17.712Z,17.11
2019-03-17T16:21:46.921Z,16.98
2019-03-17T16:24:16.180Z,16.62
2019-03-17T16:26:45.659Z,16.48
2019-03-17T16:29:14.995Z,16.42
2019-03-17T16:31:49.168Z,16.44
2019-03-17T16:34:20.467Z,16.40
2019-03-17T16:36:49.719Z,16.16
2019-03-17T16:39:21.396Z,16.10
2019-03-17T16:41:50.908Z,16.06
2019-03-17T16:44:20.846Z,15.84
2019-03-17T16:46:50.266Z,15.75
2019-03-17T16:49:21.863Z,15.71
2019-03-17T16:51:53.947Z,15.49
2019-03-17T16:54:23.419Z,15.36
2019-03-17T16:56:53.314Z,15.27
2019-03-17T16:59:23.991Z,15.20
2019-03-17T17:01:57.653Z,15.15
2019-03-17T17:04:26.965Z,15.17
2019-03-17T17:06:56.720Z,14.74
2019-03-17T17:09:29.148Z,14.69
2019-03-17T17:11:58.501Z,14.46
2019-03-17T17:14:27.857Z,13.90
2019-03-17T17:16:58.195Z,13.50
2019-03-17T17:19:27.720Z,13.14
2019-03-17T17:21:59.636Z,12.80
2019-03-17T17:24:29.095Z,12.78
2019-03-17T17:27:23.576Z,12.54
2019-03-17T17:29:53.034Z,12.39
2019-03-17T17:32:22.550Z,12.34
2019-03-17T17:34:51.887Z,12.13
2019-03-17T17:37:21.122Z,11.79
2019-03-17T17:39:50.644Z,11.61
2019-03-17T17:42:19.996Z,11.47
2019-03-17T17:44:49.552Z,11.29
2019-03-17T17:47:18.750Z,11.03
2019-03-17T17:49:51.135Z,10.85
2019-03-17T17:52:20.480Z,10.36
2019-03-17T17:54:49.757Z,10.27
2019-03-17T17:57:18.969Z,10.04
2019-03-17T17:59:48.420Z,9.97
2019-03-17T18:02:19.570Z,10.05
2019-03-17T18:04:49.102Z,9.89
2019-03-17T18:07:18.424Z,9.27
2019-03-17T18:09:47.844Z,9.05
2019-03-17T18:12:21.118Z,9.03
2019-03-17T18:14:48.392Z,9.08
2019-03-17T18:17:17.607Z,8.67
2019-03-17T18:19:46.885Z,8.43
2019-03-17T18:22:16.398Z,8.12
2019-03-17T18:24:45.686Z,7.81
2019-03-17T18:27:14.874Z,7.89
2019-03-17T18:29:44.147Z,7.70
2019-03-17T18:32:14.209Z,7.71
2019-03-17T18:34:43.787Z,7.52
2019-03-17T18:37:13.271Z,7.34
2019-03-17T18:39:42.563Z,7.31
2019-03-17T18:42:11.999Z,7.27
2019-03-17T18:44:41.217Z,7.09
2019-03-17T18:47:10.600Z,7.03
2019-03-17T18:49:39.799Z,7.02
2019-03-17T18:52:09.423Z,6.59
2019-03-17T18:54:38.706Z,6.72
2019-03-17T18:57:07.973Z,6.80
2019-03-17T18:59:37.228Z,6.73
2019-03-17T19:02:07.010Z,6.39
2019-03-17T19:04:36.394Z,6.37
2019-03-17T19:07:08.861Z,6.41
2019-03-17T19:09:38.160Z,6.25
2019-03-17T19:12:08.383Z,6.08
2019-03-17T19:14:37.652Z,6.08
2019-03-17T19:17:09.597Z,6.18
2019-03-17T19:19:39.183Z,6.18
2019-03-17T19:22:08.778Z,6.13
2019-03-17T19:24:38.347Z,5.99
2019-03-17T19:27:07.557Z,6.13
2019-03-17T19:29:36.874Z,6.28
2019-03-17T19:32:06.258Z,6.42
2019-03-17T19:34:35.824Z,6.35
2019-03-17T19:37:05.113Z,6.23
2019-03-17T19:39:35.930Z,6.34
2019-03-17T19:42:16.395Z,6.41
2019-03-17T19:44:48.398Z,6.17
2019-03-17T19:47:17.775Z,6.15
2019-03-17T19:49:47.055Z,6.11
2019-03-17T19:52:16.318Z,5.96
2019-03-17T19:54:45.483Z,6.05
2019-03-17T19:57:14.786Z,6.04
2019-03-17T19:59:43.961Z,5.98
2019-03-17T20:02:13.222Z,6.08
2019-03-17T20:04:42.407Z,6.12
2019-03-17T20:07:11.739Z,6.10
2019-03-17T20:09:40.988Z,6.22
2019-03-17T20:12:10.241Z,6.23
2019-03-17T20:14:41.980Z,6.13
2019-03-17T20:17:10.444Z,6.17
2019-03-17T20:19:39.676Z,6.00
2019-03-17T20:22:08.940Z,6.04
2019-03-17T20:24:38.168Z,5.97
2019-03-17T20:27:07.475Z,6.09
2019-03-17T20:29:37.365Z,5.92
2019-03-17T20:32:06.580Z,5.93
2019-03-17T20:34:37.453Z,5.99
2019-03-17T20:37:08.928Z,5.98
2019-03-17T20:39:40.110Z,5.88
2019-03-17T20:42:09.443Z,5.86
2019-03-17T20:44:38.678Z,5.88
2019-03-17T20:47:08.547Z,5.93
2019-03-17T20:49:39.572Z,5.94
2019-03-17T20:52:08.844Z,5.92
2019-03-17T20:54:38.186Z,6.03
2019-03-17T20:57:07.417Z,6.04
2019-03-17T20:59:36.645Z,5.94
2019-03-17T21:02:05.919Z,5.97
2019-03-17T21:04:35.184Z,5.93
2019-03-17T21:07:04.466Z,6.03
2019-03-17T21:09:36.057Z,5.84
2019-03-17T21:12:05.714Z,5.95
2019-03-17T21:14:35.227Z,5.92
2019-03-17T21:17:06.737Z,5.92
2019-03-17T21:19:37.252Z,5.71
2019-03-17T21:22:06.500Z,5.84
2019-03-17T21:24:36.031Z,5.91
2019-03-17T21:27:05.268Z,5.82
2019-03-17T21:29:34.531Z,5.80
2019-03-17T21:32:03.880Z,5.66
2019-03-17T21:34:33.116Z,5.70
2019-03-17T21:37:02.631Z,5.64
2019-03-17T21:39:31.888Z,5.60
2019-03-17T21:42:01.106Z,5.59
2019-03-17T21:44:30.368Z,5.52
2019-03-17T21:46:59.660Z,5.64
2019-03-17T21:49:39.828Z,5.72
2019-03-17T21:52:50.563Z,5.74
2019-03-17T21:56:28.237Z,5.63
2019-03-17T21:59:36.529Z,5.63
2019-03-17T22:02:12.817Z,5.67
2019-03-17T22:04:38.502Z,5.58
2019-03-17T22:07:09.023Z,5.55
2019-03-17T22:09:45.462Z,5.64
2019-03-17T22:12:21.557Z,5.63
2019-03-17T22:15:12.723Z,5.51
2019-03-17T22:17:42.313Z,5.53
2019-03-17T22:20:11.869Z,5.35
2019-03-17T22:30:00.728Z,5.44
2019-03-17T22:32:30.014Z,5.24
2019-03-17T22:34:59.289Z,5.23
2019-03-17T22:37:28.771Z,4.96
2019-03-17T22:39:58.042Z,5.02
2019-03-17T22:42:27.240Z,4.99
2019-03-17T22:44:56.491Z,4.93
2019-03-17T22:47:25.988Z,5.06
2019-03-17T22:53:16.233Z,5.14
2019-03-17T22:56:10.511Z,5.21
2019-03-17T22:59:20.624Z,5.01
2019-03-17T23:05:48.822Z,5.28
2019-03-17T23:08:43.965Z,5.39
2019-03-17T23:11:31.110Z,5.09
2019-03-17T23:17:47.770Z,4.94
2019-03-17T23:20:33.869Z,4.78
2019-03-17T23:23:24.293Z,4.70
2019-03-17T23:26:14.573Z,4.63
2019-03-17T23:28:46.708Z,4.71
2019-03-17T23:31:20.735Z,4.81
2019-03-17T23:33:52.546Z,4.89
2019-03-17T23:36:26.967Z,5.04
2019-03-17T23:38:56.201Z,4.95
2019-03-17T23:41:25.636Z,4.76
2019-03-17T23:43:54.886Z,4.95
2019-03-17T23:46:24.166Z,5.09
2019-03-17T23:48:53.399Z,5.15
2019-03-17T23:51:22.807Z,5.18
2019-03-17T23:53:52.128Z,5.22
2019-03-17T23:56:21.845Z,5.22
2019-03-17T23:58:51.442Z,5.27
